Time;durP1;ratioP1;P1;durP2;ratioP2;P2;SDS_P1;SDS_P2;PMS_P1;PMS_P2;Temp;Humidity;BMP_temperature;BMP_pressure;BME280_temperature;BME280_humidity;BME280_pressure;Samples;Min_cycle;Max_cycle;Signal;HPM_P1;HPM_P2
2021/06/15 00:00:51;;;;;;;6.35;3.30;;;384.80;2329.60;;;;;;5053902;28;20060;-82
2021/06/15 00:03:17;;;;;;;4.90;3.45;;;384.80;2329.60;;;;;;5053328;28;20045;-82
2021/06/15 00:05:43;;;;;;;6.15;3.17;;;384.60;2329.60;;;;;;5054377;28;20040;-82
2021/06/15 00:08:09;;;;;;;5.82;3.33;;;384.60;2329.60;;;;;;5054362;28;20078;-82
2021/06/15 00:10:35;;;;;;;6.70;3.10;;;384.70;2329.60;;;;;;5052712;28;20044;-82
2021/06/15 00:13:01;;;;;;;6.40;3.35;;;384.70;2329.60;;;;;;5052776;28;20022;-82
2021/06/15 00:15:27;;;;;;;5.05;3.05;;;384.50;2329.60;;;;;;5053215;28;20031;-82
2021/06/15 00:17:53;;;;;;;7.03;3.25;;;384.60;2329.60;;;;;;5054044;28;20044;-82
2021/06/15 00:20:20;;;;;;;5.93;3.45;;;384.50;2329.60;;;;;;5053784;28;20365;-82
2021/06/15 00:22:46;;;;;;;10.00;4.03;;;384.40;2329.60;;;;;;5053531;28;20021;-81
2021/06/15 00:25:14;;;;;;;7.57;3.28;;;384.20;2329.60;;;;;;5052147;28;20143;-82
2021/06/15 00:27:41;;;;;;;5.57;3.22;;;384.20;2329.60;;;;;;5052602;28;20032;-82
2021/06/15 00:30:12;;;;;;;6.13;3.70;;;384.10;2329.60;;;;;;5052607;28;20028;-82
2021/06/15 00:32:38;;;;;;;5.07;3.00;;;409.70;2355.20;;;;;;5054551;28;20024;-82
2021/06/15 00:35:04;;;;;;;5.78;3.38;;;384.10;2329.60;;;;;;5053914;28;20029;-82
2021/06/15 00:37:30;;;;;;;11.57;3.42;;;384.10;2329.60;;;;;;5053514;28;20116;-82
2021/06/15 00:39:55;;;;;;;13.98;4.22;;;384.10;2329.60;;;;;;5053691;28;20111;-82
2021/06/15 00:42:23;;;;;;;4.75;2.65;;;359.30;2329.60;;;;;;5053604;28;20036;-82
2021/06/15 00:44:49;;;;;;;7.93;3.55;;;359.30;2329.60;;;;;;5053565;28;20104;-82
2021/06/15 00:47:15;;;;;;;5.88;3.38;;;384.20;2329.60;;;;;;5053838;28;20025;-81
2021/06/15 00:49:42;;;;;;;7.90;3.63;;;359.30;2329.60;;;;;;5053514;28;20128;-82
2021/06/15 00:52:08;;;;;;;6.65;3.72;;;359.20;2329.60;;;;;;5053136;28;20048;-82
2021/06/15 00:54:34;;;;;;;4.88;3.05;;;359.10;2329.60;;;;;;5054518;28;20017;-81
2021/06/15 00:57:01;;;;;;;5.55;3.35;;;359.00;2329.60;;;;;;5053336;28;20441;-81
2021/06/15 00:59:27;;;;;;;8.93;3.30;;;358.90;2329.60;;;;;;5053170;28;20035;-81
2021/06/15 01:01:53;;;;;;;5.43;3.10;;;359.00;2329.60;;;;;;5053313;28;20128;-81
2021/06/15 01:04:19;;;;;;;8.90;3.15;;;358.90;2329.60;;;;;;5053541;28;20108;-82
2021/06/15 01:06:55;;;;;;;5.40;2.90;;;384.20;2329.60;;;;;;5052924;28;20025;-82
2021/06/15 01:09:33;;;;;;;5.22;2.72;;;359.00;2329.60;;;;;;5053476;28;20025;-82
2021/06/15 01:12:36;;;;;;;8.50;4.18;;;359.00;2329.60;;;;;;5053427;28;20130;-82
2021/06/15 01:15:13;;;;;;;5.78;3.00;;;358.80;2329.60;;;;;;5053201;28;20095;-81
2021/06/15 01:17:54;;;;;;;4.47;2.60;;;358.90;2329.60;;;;;;5053287;28;20040;-81
2021/06/15 01:20:25;;;;;;;4.68;2.88;;;358.70;2329.60;;;;;;5053193;28;20360;-81
2021/06/15 01:23:23;;;;;;;5.20;3.45;;;358.80;2329.60;;;;;;5053126;28;20029;-81
2021/06/15 01:26:39;;;;;;;5.53;3.28;;;358.80;2329.60;;;;;;5053109;28;20029;-82
2021/06/15 01:29:10;;;;;;;6.70;3.10;;;358.80;2329.60;;;;;;5027404;28;20083;-82
2021/06/15 01:31:52;;;;;;;7.32;3.05;;;358.80;2329.60;;;;;;5053066;28;20044;-81
2021/06/15 01:34:26;;;;;;;4.80;3.08;;;358.70;2329.60;;;;;;5052894;28;20548;-82
2021/06/15 01:37:05;;;;;;;5.78;3.40;;;358.40;2329.60;;;;;;5053020;28;20033;-81
2021/06/15 01:39:38;;;;;;;7.28;3.17;;;358.40;2329.60;;;;;;5052773;28;20027;-82
2021/06/15 01:42:25;;;;;;;;;;;358.50;2329.60;;;;;;5052744;28;20813;-81
2021/06/15 01:44:58;;;;;;;7.05;3.80;;;358.40;2329.60;;;;;;5052334;28;19912;-80
2021/06/15 01:47:27;;;;;;;6.63;4.43;;;333.70;2329.60;;;;;;5052898;28;20029;-82
2021/06/15 01:49:57;;;;;;;6.25;4.07;;;333.50;2329.60;;;;;;5052581;28;20035;-82
2021/06/15 01:52:26;;;;;;;6.07;4.35;;;333.40;2329.60;;;;;;5052280;28;20025;-81
2021/06/15 01:54:54;;;;;;;6.30;3.80;;;333.60;2329.60;;;;;;5052874;28;20108;-82
2021/06/15 01:57:21;;;;;;;8.85;3.72;;;333.50;2329.60;;;;;;5051804;28;20032;-80
2021/06/15 01:59:49;;;;;;;5.05;3.22;;;333.60;2329.60;;;;;;5052149;28;20113;-82
2021/06/15 02:02:16;;;;;;;5.82;3.47;;;333.70;2329.60;;;;;;5063993;28;20110;-82
2021/06/15 02:04:52;;;;;;;5.63;3.05;;;333.70;2329.60;;;;;;5055606;28;20024;-81
2021/06/15 02:07:23;;;;;;;6.68;4.07;;;358.40;2329.60;;;;;;5055533;28;20024;-81
2021/06/15 02:09:57;;;;;;;6.60;3.25;;;333.60;2329.60;;;;;;5055014;28;20020;-82
2021/06/15 02:12:30;;;;;;;8.65;3.30;;;333.60;2329.60;;;;;;5055336;28;20056;-81
2021/06/15 02:14:57;;;;;;;9.55;3.60;;;333.60;2329.60;;;;;;5055411;28;20039;-81
2021/06/15 02:17:26;;;;;;;6.75;3.80;;;333.60;2329.60;;;;;;5055438;28;20023;-81
2021/06/15 02:19:53;;;;;;;7.70;4.10;;;333.70;2329.60;;;;;;5055687;28;20119;-81
2021/06/15 02:22:22;;;;;;;8.82;3.30;;;333.70;2329.60;;;;;;5055690;28;20028;-81
2021/06/15 02:24:56;;;;;;;7.25;3.35;;;333.50;2329.60;;;;;;5055207;28;20020;-81
2021/06/15 02:27:23;;;;;;;6.47;3.40;;;333.60;2329.60;;;;;;5076559;28;20036;-82
2021/06/15 02:29:52;;;;;;;7.85;3.38;;;333.40;2329.60;;;;;;5077107;28;20487;-81
2021/06/15 02:32:22;;;;;;;5.82;3.40;;;333.50;2329.60;;;;;;5059440;28;20115;-82
2021/06/15 02:34:50;;;;;;;6.85;3.88;;;333.30;2329.60;;;;;;5059383;28;20020;-81
2021/06/15 02:37:30;;;;;;;5.53;3.90;;;333.40;2329.60;;;;;;5058866;28;20020;-82
2021/06/15 02:39:59;;;;;;;8.40;3.45;;;333.40;2329.60;;;;;;5077301;28;20027;-82
2021/06/15 02:42:26;;;;;;;8.18;4.55;;;333.40;2329.60;;;;;;5059134;28;20362;-82
2021/06/15 02:44:56;;;;;;;10.25;4.30;;;333.40;2329.60;;;;;;5076933;28;20021;-81
2021/06/15 02:47:24;;;;;;;7.43;4.30;;;333.20;2329.60;;;;;;5059358;28;20025;-82
2021/06/15 02:49:58;;;;;;;10.25;4.60;;;333.10;2329.60;;;;;;5059181;28;20044;-82
2021/06/15 02:52:34;;;;;;;5.97;3.95;;;332.90;2329.60;;;;;;5058949;28;20055;-81
2021/06/15 02:55:05;;;;;;;5.68;3.90;;;333.10;2329.60;;;;;;5059022;28;20021;-82
2021/06/15 02:57:31;;;;;;;6.70;3.85;;;333.10;2329.60;;;;;;5059051;28;20024;-81
2021/06/15 02:59:58;;;;;;;7.47;3.95;;;333.20;2329.60;;;;;;5058705;28;20024;-81
2021/06/15 03:02:25;;;;;;;6.18;4.03;;;333.20;2329.60;;;;;;5058796;28;20048;-82
2021/06/15 03:04:51;;;;;;;6.50;3.53;;;333.30;2329.60;;;;;;5058654;28;20047;-81
2021/06/15 03:07:17;;;;;;;9.13;4.30;;;333.20;2329.60;;;;;;5058809;28;20448;-81
2021/06/15 03:09:44;;;;;;;6.68;3.72;;;333.20;2329.60;;;;;;5058892;28;20028;-82
2021/06/15 03:12:24;;;;;;;6.78;4.32;;;333.10;2329.60;;;;;;5058606;28;20027;-81
2021/06/15 03:15:05;;;;;;;5.95;3.83;;;332.90;2329.60;;;;;;5076380;28;20044;-82
2021/06/15 03:17:36;;;;;;;5.20;3.75;;;333.00;2329.60;;;;;;5058573;28;20027;-82
2021/06/15 03:20:09;;;;;;;7.72;4.05;;;332.90;2329.60;;;;;;5058453;28;20029;-82
2021/06/15 03:23:00;;;;;;;12.48;4.75;;;332.90;2329.60;;;;;;5058675;28;20021;-81
2021/06/15 03:25:33;;;;;;;10.20;4.70;;;308.00;2304.00;;;;;;5058558;28;20028;-81
2021/06/15 03:28:11;;;;;;;8.43;4.32;;;332.80;2329.60;;;;;;5058374;28;20056;-81
2021/06/15 03:30:40;;;;;;;11.93;4.75;;;308.10;2304.00;;;;;;5058556;28;20024;-82
2021/06/15 03:33:09;;;;;;;10.75;5.07;;;308.10;2304.00;;;;;;5058041;28;20025;-82
2021/06/15 03:35:41;;;;;;;8.27;4.50;;;332.90;2329.60;;;;;;5058347;28;20078;-82
2021/06/15 03:38:07;;;;;;;9.88;4.60;;;332.80;2329.60;;;;;;5057325;28;20055;-82
2021/06/15 03:40:44;;;;;;;11.02;4.40;;;332.90;2329.60;;;;;;5058002;28;20417;-82
2021/06/15 03:43:12;;;;;;;8.15;4.60;;;308.10;2304.00;;;;;;5058139;28;20052;-82
2021/06/15 03:45:46;;;;;;;10.10;5.25;;;308.00;2304.00;;;;;;5058109;28;20056;-82
2021/06/15 03:48:14;;;;;;;10.90;5.13;;;308.10;2304.00;;;;;;5057998;28;20066;-82
2021/06/15 03:50:40;;;;;;;11.00;7.45;;;332.80;2329.60;;;;;;5058009;28;20033;-82
2021/06/15 03:53:10;;;;;;;12.27;7.07;;;307.80;2304.00;;;;;;5075578;28;20360;-82
2021/06/15 03:55:39;;;;;;;11.35;6.88;;;307.90;2304.00;;;;;;5057969;28;20479;-82
2021/06/15 03:58:11;;;;;;;10.32;6.30;;;308.10;2304.00;;;;;;5058026;28;20044;-82
2021/06/15 04:00:41;;;;;;;8.80;5.78;;;308.10;2304.00;;;;;;5058043;28;20092;-82
2021/06/15 04:03:09;;;;;;;11.48;6.13;;;308.10;2304.00;;;;;;5057327;28;20041;-82
2021/06/15 04:05:37;;;;;;;6.60;5.03;;;307.70;2304.00;;;;;;5057653;28;20039;-81
2021/06/15 04:08:06;;;;;;;12.75;6.72;;;307.80;2304.00;;;;;;5057733;28;20429;-81
2021/06/15 04:10:33;;;;;;;11.48;6.68;;;307.80;2304.00;;;;;;5075469;28;20016;-82
2021/06/15 04:13:03;;;;;;;10.32;6.65;;;307.90;2304.00;;;;;;5057523;28;20410;-81
2021/06/15 04:15:30;;;;;;;10.35;5.80;;;308.10;2304.00;;;;;;5057216;28;20360;-82
2021/06/15 04:17:59;;;;;;;9.25;5.90;;;332.80;2329.60;;;;;;5057420;28;20020;-82
2021/06/15 04:20:32;;;;;;;10.23;6.50;;;332.90;2329.60;;;;;;5057571;28;20029;-82
2021/06/15 04:23:02;;;;;;;9.98;5.72;;;332.90;2329.60;;;;;;5057369;28;20512;-80
2021/06/15 04:25:33;;;;;;;11.05;5.15;;;333.10;2329.60;;;;;;5057289;28;20028;-82
2021/06/15 04:28:00;;;;;;;9.88;5.90;;;333.20;2329.60;;;;;;5057333;28;20115;-82
2021/06/15 04:30:29;;;;;;;8.23;5.30;;;332.90;2329.60;;;;;;5056859;28;20048;-81
2021/06/15 04:32:58;;;;;;;14.25;6.07;;;332.90;2329.60;;;;;;5057344;28;20443;-82
2021/06/15 04:35:34;;;;;;;10.50;5.90;;;308.10;2304.00;;;;;;5057085;28;20436;-82
2021/06/15 04:38:03;;;;;;;9.23;5.90;;;332.90;2329.60;;;;;;5057121;28;20020;-82
2021/06/15 04:40:34;;;;;;;10.43;5.47;;;333.10;2329.60;;;;;;5057064;28;20364;-82
2021/06/15 04:43:19;;;;;;;9.60;6.35;;;333.30;2329.60;;;;;;5056956;28;20021;-82
2021/06/15 04:45:46;;;;;;;10.32;5.75;;;333.40;2329.60;;;;;;5056843;28;20040;-82
2021/06/15 04:48:23;;;;;;;15.13;6.63;;;333.20;2329.60;;;;;;5056883;28;20032;-82
2021/06/15 04:50:49;;;;;;;14.43;6.05;;;333.00;2329.60;;;;;;5056532;28;20062;-82
2021/06/15 04:53:17;;;;;;;10.15;6.13;;;332.90;2329.60;;;;;;5056880;28;20106;-81
2021/06/15 04:55:43;;;;;;;13.02;6.82;;;332.90;2329.60;;;;;;5056426;28;20031;-81
2021/06/15 04:58:10;;;;;;;13.45;6.15;;;333.00;2329.60;;;;;;5056523;28;20456;-82
2021/06/15 05:00:38;;;;;;;13.02;6.43;;;333.20;2329.60;;;;;;5056597;28;20020;-81
2021/06/15 05:03:06;;;;;;;15.05;7.85;;;333.40;2329.60;;;;;;5074151;28;20327;-82
2021/06/15 05:05:33;;;;;;;14.07;8.55;;;333.50;2329.60;;;;;;5056346;28;20037;-81
2021/06/15 05:08:00;;;;;;;15.65;8.00;;;333.50;2329.60;;;;;;5074600;28;20337;-81
2021/06/15 05:10:29;;;;;;;15.73;7.00;;;333.70;2329.60;;;;;;5056560;28;20031;-82
2021/06/15 05:12:55;;;;;;;18.20;6.93;;;333.50;2329.60;;;;;;5056143;28;20016;-82
2021/06/15 05:15:27;;;;;;;10.32;6.13;;;333.70;2329.60;;;;;;5056187;28;20031;-81
2021/06/15 05:17:55;;;;;;;11.37;6.30;;;358.40;2329.60;;;;;;5056194;28;20071;-81
2021/06/15 05:20:24;;;;;;;10.63;6.97;;;358.60;2329.60;;;;;;5056475;28;20021;-82
2021/06/15 05:22:58;;;;;;;11.52;6.00;;;358.40;2329.60;;;;;;5056487;28;20016;-82
2021/06/15 05:25:24;;;;;;;14.80;6.80;;;358.60;2329.60;;;;;;5074061;28;20033;-82
2021/06/15 05:27:52;;;;;;;18.35;6.88;;;358.80;2329.60;;;;;;5056372;28;20475;-81
2021/06/15 05:30:18;;;;;;;12.45;5.97;;;359.00;2329.60;;;;;;5056212;28;20028;-82
2021/06/15 05:32:44;;;;;;;11.82;4.63;;;359.10;2329.60;;;;;;5056190;28;20049;-82
2021/06/15 05:35:10;;;;;;;10.18;5.03;;;359.20;2329.60;;;;;;5055963;28;20373;-81
2021/06/15 05:37:36;;;;;;;8.65;4.82;;;384.00;2329.60;;;;;;5056043;28;20024;-81
2021/06/15 05:40:04;;;;;;;11.27;4.80;;;384.10;2329.60;;;;;;5055566;28;20025;-81
2021/06/15 05:42:29;;;;;;;12.52;5.00;;;384.20;2329.60;;;;;;5055254;28;20025;-82
2021/06/15 05:44:56;;;;;;;8.35;4.60;;;384.30;2329.60;;;;;;5055370;28;20027;-82
2021/06/15 05:47:22;;;;;;;10.30;5.40;;;384.40;2329.60;;;;;;5056157;28;20047;-81
2021/06/15 05:49:48;;;;;;;9.95;5.03;;;384.50;2329.60;;;;;;5055889;28;20440;-82
2021/06/15 05:52:14;;;;;;;8.93;4.40;;;384.40;2329.60;;;;;;5056404;28;20032;-82
2021/06/15 05:54:41;;;;;;;10.27;4.93;;;384.50;2329.60;;;;;;5055429;28;20031;-81
2021/06/15 05:57:07;;;;;;;7.05;4.30;;;384.60;2329.60;;;;;;5055260;28;20367;-82
2021/06/15 05:59:34;;;;;;;8.23;4.50;;;384.70;2329.60;;;;;;5055395;28;20052;-81
2021/06/15 06:01:59;;;;;;;6.75;3.67;;;384.80;2329.60;;;;;;5057602;28;20048;-82
2021/06/15 06:04:27;;;;;;;10.73;4.82;;;409.60;2355.20;;;;;;5059917;28;20020;-82
2021/06/15 06:09:38;;;;;;;7.65;3.85;;;409.90;2355.20;;;;;;5077690;28;20046;-82
2021/06/15 06:12:06;;;;;;;6.85;3.95;;;410.00;2355.20;;;;;;5059236;28;20021;-82
2021/06/15 06:14:32;;;;;;;7.28;4.15;;;410.10;2355.20;;;;;;5077269;28;20020;-82
2021/06/15 06:16:58;;;;;;;14.27;6.15;;;410.20;2355.20;;;;;;5059954;28;20452;-82
2021/06/15 06:19:24;;;;;;;15.10;6.38;;;410.40;2355.20;;;;;;5059582;28;20123;-81
2021/06/15 06:21:50;;;;;;;8.32;5.63;;;435.20;2355.20;;;;;;5059617;28;20124;-82
2021/06/15 06:24:18;;;;;;;11.30;5.38;;;435.30;2355.20;;;;;;5059649;28;20024;-82
2021/06/15 06:26:49;;;;;;;6.32;4.30;;;435.50;2355.20;;;;;;5059734;28;20373;-82
2021/06/15 06:29:16;;;;;;;7.87;4.73;;;435.60;2355.20;;;;;;5059806;28;20105;-82
2021/06/15 06:31:42;;;;;;;10.43;4.70;;;435.90;2355.20;;;;;;5059286;28;20031;-81
2021/06/15 06:34:08;;;;;;;10.52;6.32;;;435.90;2355.20;;;;;;5059531;28;20050;-82
2021/06/15 06:36:34;;;;;;;9.90;4.40;;;436.00;2355.20;;;;;;5059075;28;20025;-82
2021/06/15 06:39:04;;;;;;;5.88;4.28;;;436.10;2355.20;;;;;;5059519;28;20021;-81
2021/06/15 06:41:30;;;;;;;11.82;6.05;;;460.80;2380.80;;;;;;5059209;28;20031;-82
2021/06/15 06:43:56;;;;;;;8.77;4.60;;;461.00;2380.80;;;;;;5058889;28;20016;-82
2021/06/15 06:46:22;;;;;;;6.78;3.80;;;461.00;2380.80;;;;;;5058992;28;20438;-82
2021/06/15 06:48:48;;;;;;;8.65;3.78;;;461.10;2380.80;;;;;;5077135;28;20103;-82
2021/06/15 06:51:14;;;;;;;5.95;3.35;;;461.10;2380.80;;;;;;5059159;28;20408;-82
2021/06/15 06:53:40;;;;;;;5.82;3.58;;;461.00;2380.80;;;;;;5076981;28;20387;-83
2021/06/15 06:56:06;;;;;;;7.07;3.88;;;460.90;2380.80;;;;;;5059289;28;20364;-83
2021/06/15 06:58:33;;;;;;;5.75;3.70;;;460.80;2380.80;;;;;;5058943;28;20035;-83
2021/06/15 07:00:59;;;;;;;8.00;3.28;;;436.10;2355.20;;;;;;5058762;28;20017;-82
2021/06/15 07:03:24;;;;;;;4.82;3.10;;;410.40;2355.20;;;;;;5058801;28;20177;-82
2021/06/15 07:05:50;;;;;;;8.70;3.17;;;436.10;2355.20;;;;;;5058882;28;20078;-83
2021/06/15 07:08:16;;;;;;;6.38;3.08;;;435.90;2355.20;;;;;;5058817;28;20031;-82
2021/06/15 07:10:42;;;;;;;4.72;2.88;;;436.00;2355.20;;;;;;5058651;28;20024;-83
2021/06/15 07:13:08;;;;;;;7.93;3.00;;;435.90;2355.20;;;;;;5058152;28;20019;-81
2021/06/15 07:15:33;;;;;;;6.38;3.00;;;436.00;2355.20;;;;;;5058693;28;20485;-81
2021/06/15 07:17:59;;;;;;;7.10;3.65;;;436.00;2355.20;;;;;;5058626;28;20027;-82
2021/06/15 07:20:25;;;;;;;10.88;3.70;;;435.90;2355.20;;;;;;5076242;28;20017;-82
2021/06/15 07:22:51;;;;;;;6.32;3.90;;;460.80;2380.80;;;;;;5058499;28;20759;-82
2021/06/15 07:25:17;;;;;;;7.40;3.15;;;436.10;2355.20;;;;;;5059044;28;20028;-82
2021/06/15 07:27:44;;;;;;;5.70;2.72;;;460.80;2380.80;;;;;;5058182;28;20074;-80
2021/06/15 07:30:10;;;;;;;6.30;3.30;;;487.20;2380.80;;;;;;5058194;28;20017;-80
2021/06/15 07:32:36;;;;;;;6.50;2.90;;;461.40;2380.80;;;;;;5058124;28;20403;-80
2021/06/15 07:35:03;;;;;;;6.68;2.75;;;461.50;2380.80;;;;;;5057886;28;20024;-79
2021/06/15 07:37:29;;;;;;;7.45;3.20;;;461.40;2380.80;;;;;;5058206;28;20117;-75
2021/06/15 07:39:55;;;;;;;3.50;2.33;;;461.30;2380.80;;;;;;5057798;28;20109;-76
2021/06/15 07:42:22;;;;;;;5.10;2.97;;;461.30;2380.80;;;;;;5057472;28;20116;-75
2021/06/15 07:44:47;;;;;;;4.93;3.28;;;461.50;2380.80;;;;;;5077262;28;20021;-76
2021/06/15 07:47:13;;;;;;;6.75;3.78;;;461.40;2380.80;;;;;;5057976;28;20090;-76
2021/06/15 07:49:39;;;;;;;6.88;3.65;;;461.50;2380.80;;;;;;5057606;28;20103;-77
2021/06/15 07:52:05;;;;;;;6.65;3.00;;;461.40;2380.80;;;;;;5069405;28;20071;-75
2021/06/15 07:54:31;;;;;;;3.95;2.53;;;461.50;2380.80;;;;;;5075656;28;20024;-76
2021/06/15 07:56:57;;;;;;;5.25;2.40;;;461.40;2380.80;;;;;;5057206;28;20031;-77
2021/06/15 07:59:23;;;;;;;3.60;2.35;;;461.60;2380.80;;;;;;5074634;28;20452;-75
2021/06/15 08:01:49;;;;;;;5.25;2.42;;;461.60;2380.80;;;;;;5063365;28;20037;-76
2021/06/15 08:04:16;;;;;;;4.90;2.78;;;461.70;2380.80;;;;;;5064618;28;20039;-75
2021/06/15 08:06:42;;;;;;;5.72;3.35;;;461.70;2380.80;;;;;;5046380;28;20499;-76
2021/06/15 08:09:08;;;;;;;4.60;2.63;;;486.60;2380.80;;;;;;5047733;28;20048;-75
2021/06/15 08:11:34;;;;;;;3.92;2.40;;;486.70;2380.80;;;;;;5046869;28;20030;-76
2021/06/15 08:14:00;;;;;;;3.50;2.42;;;486.60;2380.80;;;;;;5048626;28;20518;-76
2021/06/15 08:16:26;;;;;;;5.78;2.58;;;486.60;2380.80;;;;;;5048304;28;20085;-76
2021/06/15 08:18:51;;;;;;;5.90;2.60;;;486.40;2380.80;;;;;;5053330;28;20024;-76
2021/06/15 08:21:17;;;;;;;3.35;2.10;;;486.50;2380.80;;;;;;5042499;28;20500;-75
2021/06/15 08:23:43;;;;;;;5.72;2.45;;;486.60;2380.80;;;;;;5036806;28;20021;-75
2021/06/15 08:26:10;;;;;;;5.53;2.72;;;486.60;2380.80;;;;;;5037483;28;20468;-76
2021/06/15 08:28:36;;;;;;;4.43;2.60;;;486.70;2380.80;;;;;;5037667;28;20456;-76
2021/06/15 08:31:02;;;;;;;8.52;4.32;;;487.00;2380.80;;;;;;5054911;28;20100;-74
2021/06/15 08:33:28;;;;;;;5.50;2.58;;;512.20;2380.80;;;;;;5055539;28;20449;-76
2021/06/15 08:35:54;;;;;;;6.90;3.90;;;512.60;2380.80;;;;;;5037630;28;20033;-76
2021/06/15 08:38:20;;;;;;;7.57;3.38;;;537.60;2406.40;;;;;;5037342;28;20044;-75
2021/06/15 08:40:48;;;;;;;11.23;4.72;;;537.80;2406.40;;;;;;5055377;28;20032;-76
2021/06/15 08:43:14;;;;;;;5.05;2.75;;;538.10;2355.20;;;;;;5055220;28;20017;-77
2021/06/15 08:45:41;;;;;;;7.22;4.50;;;538.40;2380.80;;;;;;5054740;28;20032;-76
2021/06/15 08:48:08;;;;;;;8.02;5.00;;;563.30;2432.00;;;;;;5041111;28;20031;-81
2021/06/15 08:50:34;;;;;;;9.70;4.05;;;538.20;2355.20;;;;;;5044346;28;20017;-81
2021/06/15 08:53:00;;;;;;;5.65;2.40;;;538.10;2380.80;;;;;;5057664;28;20016;-80
2021/06/15 08:55:31;;;;;;;4.18;1.60;;;538.20;2406.40;;;;;;5061755;28;20032;-81
2021/06/15 08:58:24;;;;;;;4.57;1.85;;;537.80;2278.40;;;;;;5061835;28;20014;-79
2021/06/15 09:00:50;;;;;;;6.57;1.80;;;537.80;2304.00;;;;;;5081572;28;20068;-76
2021/06/15 09:03:16;;;;;;;3.75;2.20;;;538.40;2278.40;;;;;;5094667;28;20068;-79
2021/06/15 09:05:42;;;;;;;5.07;2.72;;;538.50;2252.80;;;;;;5098316;28;20043;-78
2021/06/15 09:08:13;;;;;;;4.70;2.85;;;538.20;2252.80;;;;;;5080791;28;20017;-76
2021/06/15 09:10:41;;;;;;;5.38;3.15;;;537.80;2278.40;;;;;;5080107;28;20005;-78
2021/06/15 09:13:38;;;;;;;5.00;3.05;;;537.60;2329.60;;;;;;5077027;28;20052;-74
2021/06/15 09:16:22;;;;;;;7.97;2.78;;;512.80;2329.60;;;;;;5069136;28;20020;-75
2021/06/15 09:18:48;;;;;;;5.00;4.25;;;512.70;2329.60;;;;;;5095032;28;20016;-76
2021/06/15 09:21:37;;;;;;;8.57;3.33;;;512.80;2380.80;;;;;;5057526;28;20445;-76
2021/06/15 09:24:13;;;;;;;5.30;3.85;;;512.90;2380.80;;;;;;5075048;28;20531;-77
2021/06/15 09:27:06;;;;;;;7.10;3.13;;;512.90;2355.20;;;;;;5048527;28;20166;-78
2021/06/15 09:29:44;;;;;;;5.32;2.50;;;538.20;2304.00;;;;;;5048196;28;20021;-77
2021/06/15 09:32:19;;;;;;;4.28;2.70;;;538.30;2201.60;;;;;;5065305;28;20527;-77
2021/06/15 09:35:06;;;;;;;7.95;2.60;;;538.00;2252.80;;;;;;5063676;28;20013;-79
2021/06/15 09:37:47;;;;;;;4.45;2.80;;;537.80;2278.40;;;;;;5063621;28;20029;-78
2021/06/15 09:40:19;;;;;;;3.65;2.42;;;537.70;2278.40;;;;;;5063664;28;20109;-79
2021/06/15 09:43:08;;;;;;;5.47;2.38;;;512.90;2252.80;;;;;;5069880;28;20099;-76
2021/06/15 09:45:42;;;;;;;5.70;2.53;;;512.80;2278.40;;;;;;5073823;28;20040;-76
2021/06/15 09:48:27;;;;;;;4.95;2.90;;;512.80;2252.80;;;;;;5055603;28;20112;-77
2021/06/15 09:51:14;;;;;;;8.85;5.70;;;512.40;2278.40;;;;;;5073762;28;20024;-78
2021/06/15 09:53:45;;;;;;;6.47;3.67;;;512.70;2329.60;;;;;;5056100;28;20031;-77
2021/06/15 09:56:13;;;;;;;4.57;2.97;;;512.70;2278.40;;;;;;5073972;28;20403;-77
2021/06/15 09:58:50;;;;;;;4.45;2.60;;;537.70;2252.80;;;;;;5056590;28;20017;-81
2021/06/15 10:01:29;;;;;;;5.10;3.17;;;538.40;2304.00;;;;;;5055291;28;20021;-81
2021/06/15 10:04:11;;;;;;;7.15;3.50;;;538.50;2201.60;;;;;;5055776;28;20031;-81
2021/06/15 10:06:39;;;;;;;8.57;2.97;;;538.40;2176.00;;;;;;5055656;28;20039;-81
2021/06/15 10:09:06;;;;;;;9.55;3.22;;;538.20;2201.60;;;;;;5055714;28;20029;-79
2021/06/15 10:11:33;;;;;;;6.55;2.95;;;538.00;2201.60;;;;;;5055838;28;20025;-80
2021/06/15 10:14:01;;;;;;;6.25;3.75;;;538.50;2252.80;;;;;;5055067;28;20028;-83
2021/06/15 10:16:28;;;;;;;7.45;3.58;;;563.70;2252.80;;;;;;5058991;28;20028;-81
2021/06/15 10:18:54;;;;;;;6.15;3.60;;;588.80;2176.00;;;;;;5046447;28;20027;-78
2021/06/15 10:21:20;;;;;;;6.38;3.30;;;589.30;2124.80;;;;;;5061013;28;20020;-80
2021/06/15 10:23:46;;;;;;;5.88;3.50;;;588.90;2099.20;;;;;;5043997;28;20020;-79
2021/06/15 10:26:12;;;;;;;5.10;2.72;;;588.80;2073.60;;;;;;5045083;28;20044;-80
2021/06/15 10:28:38;;;;;;;7.85;4.85;;;589.00;2124.80;;;;;;5052248;28;20016;-86
2021/06/15 10:31:05;;;;;;;5.00;2.08;;;563.80;2048.00;;;;;;5054934;28;20039;-86
2021/06/15 10:33:45;;;;;;;4.93;2.60;;;589.00;2048.00;;;;;;5054723;28;20460;-86
2021/06/15 10:36:12;;;;;;;4.05;2.10;;;589.00;2073.60;;;;;;5054482;28;20360;-86
2021/06/15 10:38:43;;;;;;;6.28;3.00;;;589.20;2073.60;;;;;;5055412;28;20448;-85
2021/06/15 10:41:24;;;;;;;3.35;2.13;;;589.30;2048.00;;;;;;5055891;28;20028;-85
2021/06/15 10:43:55;;;;;;;4.00;2.22;;;589.70;1945.60;;;;;;5055519;28;20023;-85
2021/06/15 10:46:20;;;;;;;3.92;1.90;;;614.50;1945.60;;;;;;5056370;28;20074;-85
2021/06/15 10:48:58;;;;;;;4.38;2.10;;;589.50;1945.60;;;;;;5059493;28;20020;-83
2021/06/15 10:51:31;;;;;;;5.07;2.47;;;589.20;1996.80;;;;;;5059378;28;20016;-86
2021/06/15 10:54:02;;;;;;;4.15;1.83;;;589.20;1971.20;;;;;;5059258;28;20020;-86
2021/06/15 10:56:37;;;;;;;3.88;1.73;;;588.80;1971.20;;;;;;5059741;28;20025;-85
2021/06/15 10:59:10;;;;;;;3.92;1.90;;;563.80;1996.80;;;;;;5059389;28;20108;-86
2021/06/15 11:01:38;;;;;;;4.25;2.28;;;563.80;2048.00;;;;;;5059909;28;20040;-86
2021/06/15 11:04:07;;;;;;;4.78;2.10;;;563.70;2099.20;;;;;;5059772;28;20371;-86
2021/06/15 11:06:33;;;;;;;3.50;1.65;;;563.60;2073.60;;;;;;5059332;28;20028;-85
2021/06/15 11:09:25;;;;;;;5.60;1.60;;;563.50;2048.00;;;;;;5059486;28;20077;-86
2021/06/15 11:12:01;;;;;;;3.38;1.77;;;563.50;2048.00;;;;;;5058856;28;20017;-87
2021/06/15 11:14:27;;;;;;;3.33;1.80;;;563.20;2073.60;;;;;;5059532;28;20360;-86
2021/06/15 11:16:57;;;;;;;7.43;2.78;;;563.60;2073.60;;;;;;5059551;28;20025;-86
2021/06/15 11:19:26;;;;;;;3.50;1.77;;;589.20;2073.60;;;;;;5059041;28;20021;-86
2021/06/15 11:22:10;;;;;;;3.90;1.80;;;614.40;1894.40;;;;;;5059287;28;20081;-86
2021/06/15 11:24:39;;;;;;;4.82;1.80;;;614.80;1868.80;;;;;;5059301;28;20016;-86
2021/06/15 11:27:19;;;;;;;3.17;1.67;;;615.00;1843.20;;;;;;5058899;28;20031;-87
2021/06/15 11:29:50;;;;;;;5.20;1.70;;;614.60;1817.60;;;;;;5059110;28;20016;-86
2021/06/15 11:32:20;;;;;;;5.28;1.65;;;589.70;1868.80;;;;;;5058507;28;20108;-86
2021/06/15 11:35:04;;;;;;;5.60;3.28;;;589.30;1894.40;;;;;;5058751;28;20020;-85
2021/06/15 11:37:46;;;;;;;8.60;3.58;;;589.70;1920.00;;;;;;5058859;28;20070;-86
2021/06/15 11:40:16;;;;;;;;;;;615.00;1868.80;;;;;;5058974;28;20375;-85
2021/06/15 11:42:43;;;;;;;4.95;1.95;;;614.70;1868.80;;;;;;5058699;28;20352;-85
2021/06/15 11:45:13;;;;;;;3.22;1.70;;;614.70;1868.80;;;;;;5058836;28;20115;-84
2021/06/15 11:48:20;;;;;;;4.43;1.80;;;615.10;1843.20;;;;;;5058239;28;20025;-84
2021/06/15 11:50:55;;;;;;;2.97;1.63;;;614.60;1894.40;;;;;;5057609;28;20085;-85
2021/06/15 11:53:22;;;;;;;3.72;1.48;;;614.40;1894.40;;;;;;5058298;28;20070;-85
2021/06/15 11:55:53;;;;;;;2.80;1.50;;;589.50;1945.60;;;;;;5058491;28;20025;-86
2021/06/15 11:58:23;;;;;;;3.90;1.77;;;589.30;1945.60;;;;;;5058135;28;20435;-84
2021/06/15 12:00:59;;;;;;;3.95;1.85;;;589.20;1996.80;;;;;;5057863;28;20031;-84
2021/06/15 12:03:27;;;;;;;3.47;1.70;;;589.20;1996.80;;;;;;5058216;28;20048;-85
2021/06/15 12:05:57;;;;;;;5.25;3.15;;;589.60;1945.60;;;;;;5058092;28;20028;-84
2021/06/15 12:08:29;;;;;;;5.35;3.45;;;589.40;1996.80;;;;;;5057802;28;20021;-84
2021/06/15 12:10:54;;;;;;;4.63;2.25;;;589.20;1996.80;;;;;;5075812;28;20061;-84
2021/06/15 12:13:25;;;;;;;4.35;2.10;;;589.00;2022.40;;;;;;5058286;28;20119;-84
2021/06/15 12:15:59;;;;;;;4.78;2.05;;;589.40;1996.80;;;;;;5057947;28;20020;-85
2021/06/15 12:18:29;;;;;;;6.18;2.08;;;589.60;1945.60;;;;;;5058071;28;20024;-85
2021/06/15 12:20:59;;;;;;;5.55;2.00;;;589.70;1996.80;;;;;;5058002;28;20025;-86
2021/06/15 12:23:35;;;;;;;4.78;2.80;;;614.40;1945.60;;;;;;5057632;28;20023;-85
2021/06/15 12:26:32;;;;;;;3.33;1.90;;;614.40;1945.60;;;;;;5057688;28;20464;-84
2021/06/15 12:29:21;;;;;;;6.03;1.98;;;614.80;1868.80;;;;;;5057292;28;20024;-85
2021/06/15 12:31:49;;;;;;;5.38;2.35;;;614.80;1792.00;;;;;;5057652;28;20024;-85
2021/06/15 12:34:18;;;;;;;5.07;2.33;;;614.80;1868.80;;;;;;5057453;28;20035;-84